Time;durP1;ratioP1;P1;durP2;ratioP2;P2;SDS_P1;SDS_P2;PMS_P1;PMS_P2;Temp;Humidity;BMP_temperature;BMP_pressure;BME280_temperature;BME280_humidity;BME280_pressure;Samples;Min_cycle;Max_cycle;Signal;HPM_P1;HPM_P2
2022/01/15 00:45:33;;;;;;;33.13;20.60;;;2.20;99.90;;;;;;4941484;29;20234;-89
2022/01/15 00:48:02;;;;;;;28.67;19.30;;;2.10;99.90;;;;;;4945474;29;20681;-89
2022/01/15 00:50:29;;;;;;;27.10;19.27;;;2.10;99.90;;;;;;4942368;29;20301;-89
2022/01/15 00:52:56;;;;;;;31.35;18.80;;;2.10;99.90;;;;;;4941930;29;20242;-89
2022/01/15 00:55:26;;;;;;;28.95;19.23;;;1.70;99.90;;;;;;4946876;29;20230;-88
2022/01/15 00:57:52;;;;;;;29.10;20.60;;;2.10;99.90;;;;;;4945653;29;20214;-89
2022/01/15 01:00:22;;;;;;;26.10;17.58;;;1.60;99.90;;;;;;4943305;29;20215;-89
2022/01/15 01:02:51;;;;;;;26.58;19.98;;;2.10;99.90;;;;;;4948074;29;20712;-90
2022/01/15 01:05:18;;;;;;;27.58;19.85;;;2.00;99.90;;;;;;4940397;29;20341;-89
2022/01/15 01:07:45;;;;;;;32.50;19.55;;;1.60;99.90;;;;;;4940711;29;20285;-89
2022/01/15 01:10:34;;;;;;;26.25;17.98;;;2.10;99.90;;;;;;4943190;29;20202;-89
2022/01/15 01:13:27;;;;;;;30.60;18.38;;;1.60;99.90;;;;;;4954631;29;20274;-88
2022/01/15 01:24:06;;;;;;;28.88;18.98;;;1.90;99.90;;;;;;4956180;29;20265;-89
2022/01/15 01:26:41;;;;;;;26.90;17.85;;;2.40;99.90;;;;;;4953746;29;20244;-87
2022/01/15 01:29:17;;;;;;;27.60;18.33;;;2.20;99.90;;;;;;4954973;29;20266;-88
2022/01/15 01:31:56;;;;;;;32.55;18.52;;;1.80;99.90;;;;;;4953876;29;20678;-88
2022/01/15 01:34:27;;;;;;;27.90;18.95;;;2.20;99.90;;;;;;4949071;29;20337;-88
2022/01/15 01:37:01;;;;;;;31.73;19.65;;;1.60;99.90;;;;;;4959372;29;20222;-88
2022/01/15 01:39:37;;;;;;;26.38;19.98;;;1.90;99.90;;;;;;4958644;29;20210;-89
2022/01/15 01:42:12;;;;;;;27.67;19.33;;;2.00;99.90;;;;;;4950067;29;20230;-88
2022/01/15 01:44:41;;;;;;;27.33;18.80;;;1.90;99.90;;;;;;4951460;29;20329;-88
2022/01/15 01:47:20;;;;;;;27.48;20.40;;;1.60;99.90;;;;;;4957223;29;20237;-87
2022/01/15 01:49:51;;;;;;;24.60;18.75;;;1.70;99.90;;;;;;4957653;29;20198;-88
2022/01/15 01:52:18;;;;;;;29.98;20.05;;;1.90;99.90;;;;;;4957562;29;20195;-89
2022/01/15 01:54:45;;;;;;;27.42;19.15;;;1.90;99.90;;;;;;4951926;29;20628;-88
2022/01/15 01:57:13;;;;;;;26.35;18.88;;;2.00;99.90;;;;;;4945654;29;20241;-89
2022/01/15 01:59:40;;;;;;;27.27;18.73;;;2.00;99.90;;;;;;4961492;29;20230;-88
2022/01/15 02:02:07;;;;;;;30.50;19.48;;;2.00;99.90;;;;;;4962446;29;20202;-88
2022/01/15 02:04:34;;;;;;;26.80;19.00;;;1.90;99.90;;;;;;4950826;29;20237;-88
2022/01/15 02:07:03;;;;;;;33.50;19.55;;;1.60;99.90;;;;;;4945742;29;20661;-89
2022/01/15 02:09:30;;;;;;;28.25;18.67;;;2.00;99.90;;;;;;4943903;29;20246;-88
2022/01/15 02:11:57;;;;;;;31.55;19.33;;;2.10;99.90;;;;;;4950345;29;20210;-89
2022/01/15 02:14:29;;;;;;;29.45;19.95;;;2.10;99.90;;;;;;4952756;29;20238;-88
2022/01/15 02:16:56;;;;;;;23.77;17.23;;;1.90;99.90;;;;;;4952385;29;20210;-88
2022/01/15 02:24:55;;;;;;;30.23;18.20;;;2.10;99.90;;;;;;4957026;29;20323;-87
2022/01/15 02:27:22;;;;;;;27.35;15.77;;;2.20;99.90;;;;;;4951131;29;20245;-87
2022/01/15 02:29:49;;;;;;;23.08;15.70;;;2.20;99.90;;;;;;4942465;29;20246;-88
2022/01/15 02:32:16;;;;;;;24.67;16.33;;;1.90;99.90;;;;;;4946246;29;20235;-89
2022/01/15 02:34:43;;;;;;;21.88;15.73;;;1.80;99.90;;;;;;4946378;29;20226;-90
2022/01/15 02:37:11;;;;;;;24.83;15.80;;;2.10;99.90;;;;;;4942136;29;20262;-88
2022/01/15 02:39:38;;;;;;;25.45;16.40;;;1.90;99.90;;;;;;4956948;29;20210;-88
2022/01/15 02:42:05;;;;;;;23.85;15.63;;;2.20;99.90;;;;;;4955359;29;20206;-89
2022/01/15 02:44:37;;;;;;;22.35;15.80;;;2.00;99.90;;;;;;4941894;29;20326;-88
2022/01/15 02:49:49;;;;;;;22.65;17.95;;;2.20;99.90;;;;;;4924638;29;20205;-90
2022/01/15 02:52:17;;;;;;;23.52;15.50;;;1.90;99.90;;;;;;4943588;29;20714;-89
2022/01/15 02:54:45;;;;;;;28.52;16.70;;;1.80;99.90;;;;;;4942913;29;20786;-89
2022/01/15 02:57:12;;;;;;;23.73;16.58;;;1.70;99.90;;;;;;4951434;29;20194;-88
2022/01/15 02:59:39;;;;;;;24.55;18.50;;;1.70;99.90;;;;;;4952310;29;20229;-88
2022/01/15 03:02:06;;;;;;;25.13;16.88;;;1.60;99.90;;;;;;4943408;29;20238;-89
2022/01/15 03:04:33;;;;;;;32.83;17.48;;;1.10;99.90;;;;;;4942989;29;20656;-88
2022/01/15 03:07:00;;;;;;;29.20;18.55;;;1.30;99.90;;;;;;4949493;29;20226;-87
2022/01/15 03:09:29;;;;;;;28.88;18.15;;;1.20;99.90;;;;;;4946141;29;20221;-88
2022/01/15 03:12:01;;;;;;;33.35;19.25;;;1.10;99.90;;;;;;4940988;29;20210;-88
2022/01/15 03:14:30;;;;;;;29.02;20.55;;;1.00;99.90;;;;;;4940634;29;20609;-88
2022/01/15 03:16:58;;;;;;;25.95;17.00;;;1.60;99.90;;;;;;4941042;29;20210;-88
2022/01/15 03:19:25;;;;;;;30.38;18.38;;;1.70;99.90;;;;;;4941340;29;20237;-88
2022/01/15 03:21:52;;;;;;;25.48;17.40;;;1.00;99.90;;;;;;4945597;29;20214;-87
2022/01/15 03:24:20;;;;;;;30.00;18.38;;;1.50;99.90;;;;;;4944121;29;20265;-89
2022/01/15 03:26:48;;;;;;;25.42;17.85;;;1.50;99.90;;;;;;4961418;29;20242;-88
2022/01/15 03:29:15;;;;;;;26.30;16.98;;;1.50;99.90;;;;;;4949788;29;20205;-88
2022/01/15 03:31:42;;;;;;;25.48;17.42;;;1.10;99.90;;;;;;4959425;29;20190;-89
2022/01/15 03:34:09;;;;;;;25.00;16.20;;;1.10;99.90;;;;;;4949868;29;20226;-88
2022/01/15 03:36:36;;;;;;;24.08;17.55;;;1.40;99.90;;;;;;4952269;29;20206;-88
2022/01/15 03:39:04;;;;;;;26.88;17.80;;;1.20;99.90;;;;;;4946295;29;20224;-88
2022/01/15 03:41:31;;;;;;;27.55;16.65;;;1.00;99.90;;;;;;4942462;29;20297;-88
2022/01/15 03:43:59;;;;;;;22.85;16.30;;;1.50;99.90;;;;;;4941538;29;20245;-87
2022/01/15 03:46:26;;;;;;;24.88;16.98;;;1.70;99.90;;;;;;4941010;29;20242;-89
2022/01/15 03:48:53;;;;;;;23.95;16.15;;;1.40;99.90;;;;;;4944970;29;20216;-88
2022/01/15 03:51:20;;;;;;;23.20;17.10;;;1.50;99.90;;;;;;4949815;29;20245;-89
2022/01/15 03:53:47;;;;;;;29.00;16.98;;;1.00;99.90;;;;;;4949393;29;20253;-89
2022/01/15 03:56:14;;;;;;;30.17;18.48;;;1.10;99.90;;;;;;4958117;29;20207;-89
2022/01/15 03:58:41;;;;;;;27.77;17.85;;;1.50;99.90;;;;;;4960879;29;20190;-89
2022/01/15 04:01:09;;;;;;;26.88;17.70;;;1.50;99.90;;;;;;4952397;29;20608;-88
2022/01/15 04:03:36;;;;;;;26.13;17.52;;;1.10;99.90;;;;;;4940143;29;20238;-88
2022/01/15 04:06:03;;;;;;;28.48;17.25;;;1.60;99.90;;;;;;4939823;29;20230;-89
2022/01/15 04:08:30;;;;;;;23.67;15.63;;;1.40;99.90;;;;;;4952409;29;20209;-89
2022/01/15 04:11:00;;;;;;;25.52;17.40;;;1.30;99.90;;;;;;4952150;29;20615;-88
2022/01/15 04:13:27;;;;;;;25.98;17.40;;;0.90;99.90;;;;;;4941937;29;20269;-89
2022/01/15 04:15:57;;;;;;;25.55;17.50;;;1.30;99.90;;;;;;4940107;29;20221;-88
2022/01/15 04:18:28;;;;;;;24.38;17.40;;;0.80;99.90;;;;;;4940122;29;20214;-88
2022/01/15 04:20:56;;;;;;;32.28;18.20;;;1.00;99.90;;;;;;4944543;29;20202;-89
2022/01/15 04:23:23;;;;;;;25.08;16.05;;;1.30;99.90;;;;;;4940688;29;20225;-89
2022/01/15 04:25:50;;;;;;;25.77;16.00;;;1.00;99.90;;;;;;4945707;29;20663;-89
2022/01/15 04:28:20;;;;;;;25.50;16.83;;;1.00;99.90;;;;;;4940123;29;20206;-89
2022/01/15 04:30:48;;;;;;;23.40;16.10;;;1.30;99.90;;;;;;4939929;29;20620;-89
2022/01/15 04:33:16;;;;;;;23.48;16.88;;;1.00;99.90;;;;;;4938360;29;20211;-88
2022/01/15 04:35:47;;;;;;;29.30;17.30;;;1.00;99.90;;;;;;4939535;29;20294;-88
2022/01/15 04:38:14;;;;;;;22.65;15.32;;;1.20;99.90;;;;;;4941511;29;20209;-89
2022/01/15 04:40:41;;;;;;;27.17;17.10;;;1.40;99.90;;;;;;4939630;29;20218;-89
2022/01/15 04:43:08;;;;;;;26.80;17.25;;;1.60;99.90;;;;;;4939513;29;20214;-89
2022/01/15 04:45:35;;;;;;;25.23;16.98;;;1.20;99.90;;;;;;4938893;29;20223;-89
2022/01/15 04:48:06;;;;;;;27.50;15.40;;;1.00;99.90;;;;;;4938977;29;20698;-89
2022/01/15 04:50:33;;;;;;;22.45;16.50;;;1.40;99.90;;;;;;4939009;29;20561;-89
2022/01/15 04:53:02;;;;;;;22.77;14.60;;;1.00;99.90;;;;;;4939375;29;20210;-88
2022/01/15 04:55:29;;;;;;;24.88;16.40;;;1.30;99.90;;;;;;4940222;29;20210;-87
2022/01/15 04:57:58;;;;;;;30.65;15.95;;;1.30;99.90;;;;;;4943896;29;20202;-88
2022/01/15 05:00:28;;;;;;;19.80;14.13;;;1.30;99.90;;;;;;4955450;29;20194;-89
2022/01/15 05:02:57;;;;;;;22.75;14.73;;;0.90;99.90;;;;;;4960186;29;20300;-88
2022/01/15 05:05:29;;;;;;;22.23;13.80;;;1.20;99.90;;;;;;4945580;29;20234;-88
2022/01/15 05:07:56;;;;;;;23.02;15.82;;;0.90;99.90;;;;;;4942894;29;20593;-88
2022/01/15 05:10:29;;;;;;;17.00;13.40;;;1.00;99.90;;;;;;4943437;29;20555;-88
2022/01/15 05:12:59;;;;;;;23.02;16.73;;;1.00;99.90;;;;;;4951235;29;20193;-88
2022/01/15 05:15:28;;;;;;;23.40;15.88;;;0.90;99.90;;;;;;4952963;29;20280;-89
2022/01/15 05:17:55;;;;;;;27.38;17.58;;;1.00;99.90;;;;;;4945071;29;20242;-89
2022/01/15 05:20:24;;;;;;;27.35;17.98;;;1.00;99.90;;;;;;4943881;29;20298;-88
2022/01/15 05:22:51;;;;;;;25.92;17.10;;;1.10;99.90;;;;;;4943807;29;20289;-88
2022/01/15 05:25:20;;;;;;;22.75;16.00;;;0.70;99.90;;;;;;4942470;29;20765;-89
2022/01/15 05:27:54;;;;;;;21.75;16.02;;;1.00;99.90;;;;;;4957576;29;20225;-88
2022/01/15 05:30:21;;;;;;;26.25;16.75;;;0.50;99.90;;;;;;4963497;29;20202;-86
2022/01/15 05:32:55;;;;;;;24.48;15.13;;;1.00;99.90;;;;;;4956168;29;20220;-89
2022/01/15 05:35:26;;;;;;;29.88;16.35;;;1.10;99.90;;;;;;4960781;29;20251;-89
2022/01/15 05:38:00;;;;;;;23.85;17.02;;;1.10;99.90;;;;;;4959132;29;20260;-87
2022/01/15 05:40:28;;;;;;;27.25;15.55;;;1.10;99.90;;;;;;4955509;29;20297;-88
2022/01/15 05:42:58;;;;;;;25.25;16.15;;;1.30;99.90;;;;;;4947372;29;20261;-89
2022/01/15 05:45:25;;;;;;;23.38;15.90;;;1.30;99.90;;;;;;4963081;29;20270;-89
2022/01/15 05:47:53;;;;;;;26.80;16.52;;;0.60;99.90;;;;;;4946142;29;20230;-90
2022/01/15 05:50:23;;;;;;;22.95;15.90;;;1.00;99.90;;;;;;4945591;29;20247;-90
2022/01/15 05:52:50;;;;;;;24.75;16.25;;;1.00;99.90;;;;;;4943983;29;20289;-89
2022/01/15 05:55:21;;;;;;;27.92;17.08;;;0.70;99.90;;;;;;4942835;29;20264;-88
2022/01/15 05:57:48;;;;;;;22.58;16.27;;;1.00;99.90;;;;;;4942480;29;20214;-88
2022/01/15 06:00:18;;;;;;;25.05;17.08;;;1.00;99.90;;;;;;4943441;29;20205;-89
2022/01/15 06:02:47;;;;;;;25.90;16.15;;;1.10;99.90;;;;;;4942904;29;20265;-89
2022/01/15 06:05:17;;;;;;;26.00;16.30;;;0.70;99.90;;;;;;4941442;29;20592;-88
2022/01/15 06:07:44;;;;;;;24.70;16.08;;;1.00;99.90;;;;;;4942241;29;20225;-88
2022/01/15 06:10:15;;;;;;;23.77;16.50;;;1.00;99.90;;;;;;4942618;29;20214;-88
2022/01/15 06:12:44;;;;;;;27.73;15.95;;;1.00;99.90;;;;;;4943532;29;20202;-88
2022/01/15 06:15:16;;;;;;;22.35;15.85;;;0.60;99.90;;;;;;4943241;29;20270;-89
2022/01/15 06:17:50;;;;;;;27.08;16.60;;;1.10;99.90;;;;;;4943377;29;20197;-89
2022/01/15 06:20:19;;;;;;;29.23;16.17;;;1.20;99.90;;;;;;4946847;29;20210;-89
2022/01/15 06:22:46;;;;;;;25.55;15.63;;;1.00;99.90;;;;;;4955452;29;20202;-88
2022/01/15 06:25:14;;;;;;;23.98;16.10;;;1.00;99.90;;;;;;4948749;29;20229;-89
2022/01/15 06:27:45;;;;;;;24.15;15.00;;;1.00;99.90;;;;;;4954369;29;20254;-90
2022/01/15 06:30:17;;;;;;;30.40;15.25;;;0.90;99.90;;;;;;4959680;29;20198;-90
2022/01/15 06:32:50;;;;;;;25.48;15.02;;;1.20;99.90;;;;;;4953255;29;20212;-89
2022/01/15 06:35:20;;;;;;;26.52;15.55;;;0.60;99.90;;;;;;4942903;29;20229;-89
2022/01/15 06:37:48;;;;;;;24.20;14.68;;;1.10;99.90;;;;;;4943189;29;20202;-89
2022/01/15 06:40:16;;;;;;;25.90;14.50;;;1.00;99.90;;;;;;4946741;29;20214;-89
2022/01/15 06:42:44;;;;;;;29.75;18.50;;;0.50;99.90;;;;;;4941578;29;20264;-88
2022/01/15 06:45:12;;;;;;;23.48;15.50;;;1.00;99.90;;;;;;4996573;23;20263;-87
2022/01/15 06:47:41;;;;;;;23.73;15.90;;;1.00;99.90;;;;;;4987515;28;20555;-86
2022/01/15 06:50:11;;;;;;;20.38;14.80;;;1.10;99.90;;;;;;4986162;28;20209;-88
2022/01/15 06:52:40;;;;;;;24.10;14.77;;;1.00;99.90;;;;;;4986694;28;20275;-87
2022/01/15 06:55:09;;;;;;;23.45;15.88;;;1.00;99.90;;;;;;4985062;28;20732;-87
2022/01/15 06:57:36;;;;;;;21.05;15.18;;;0.90;99.90;;;;;;4989670;28;20300;-87
2022/01/15 07:00:05;;;;;;;23.15;15.57;;;0.80;99.90;;;;;;4984368;28;20224;-88
2022/01/15 07:02:35;;;;;;;22.05;14.20;;;0.80;99.90;;;;;;4985474;28;20211;-88
2022/01/15 07:05:02;;;;;;;26.38;15.80;;;0.80;99.90;;;;;;4986029;28;20233;-88
2022/01/15 07:07:32;;;;;;;24.55;15.90;;;0.90;99.90;;;;;;4984583;28;20228;-87
2022/01/15 07:10:00;;;;;;;24.13;16.45;;;0.70;99.90;;;;;;4989508;28;20283;-89
2022/01/15 07:12:26;;;;;;;27.20;17.10;;;0.70;99.90;;;;;;4985688;28;20335;-86
2022/01/15 07:14:56;;;;;;;24.17;16.25;;;0.40;99.90;;;;;;4992546;28;20233;-89
2022/01/15 07:17:27;;;;;;;25.05;15.65;;;0.60;99.90;;;;;;4998178;28;20208;-87
2022/01/15 07:19:54;;;;;;;24.25;16.70;;;1.10;99.90;;;;;;4994513;28;20193;-88
2022/01/15 07:22:21;;;;;;;25.17;16.67;;;0.90;99.90;;;;;;4988021;28;20235;-87
2022/01/15 07:24:49;;;;;;;23.67;16.88;;;0.90;99.90;;;;;;4984787;28;20258;-87
2022/01/15 07:27:17;;;;;;;26.98;16.63;;;0.80;99.90;;;;;;4986894;28;20660;-87
2022/01/15 07:29:43;;;;;;;23.83;15.50;;;0.80;99.90;;;;;;4989514;28;20219;-87
2022/01/15 07:32:11;;;;;;;24.77;15.43;;;0.70;99.90;;;;;;4986213;28;20271;-88
2022/01/15 07:34:48;;;;;;;24.05;15.18;;;0.80;99.90;;;;;;4988447;28;20700;-87
2022/01/15 07:37:25;;;;;;;25.42;15.32;;;0.90;99.90;;;;;;4986331;28;20211;-87
2022/01/15 07:39:56;;;;;;;22.85;16.08;;;0.80;99.90;;;;;;4983885;28;20216;-88
2022/01/15 07:42:34;;;;;;;25.20;16.08;;;1.00;99.90;;;;;;4982966;28;20224;-88
2022/01/15 07:45:12;;;;;;;25.33;16.02;;;1.00;99.90;;;;;;4987286;28;20247;-88
2022/01/15 07:47:44;;;;;;;30.75;17.30;;;0.90;99.90;;;;;;4990348;28;20312;-87
2022/01/15 07:50:23;;;;;;;23.17;16.27;;;0.90;99.90;;;;;;4990741;28;20225;-89
2022/01/15 07:53:09;;;;;;;27.92;17.33;;;0.90;99.90;;;;;;4988429;28;20302;-89
2022/01/15 07:55:54;;;;;;;24.02;17.35;;;0.80;99.90;;;;;;4989189;28;20240;-88
2022/01/15 07:58:37;;;;;;;21.75;15.32;;;0.80;99.90;;;;;;4985535;28;20200;-88
2022/01/15 08:01:21;;;;;;;30.88;16.63;;;0.90;99.90;;;;;;4983319;28;20267;-88
2022/01/15 08:03:55;;;;;;;25.65;17.52;;;0.90;99.90;;;;;;4983322;28;20216;-90
2022/01/15 08:06:40;;;;;;;21.60;16.05;;;1.00;99.90;;;;;;4984745;28;20226;-89
2022/01/15 08:09:34;;;;;;;26.23;17.95;;;1.10;99.90;;;;;;4982309;28;20246;-89
2022/01/15 08:12:08;;;;;;;25.05;17.55;;;0.60;99.90;;;;;;4981619;28;20613;-88
2022/01/15 08:14:38;;;;;;;22.35;16.85;;;1.10;99.90;;;;;;4985201;28;20236;-87
2022/01/15 08:17:11;;;;;;;24.10;16.65;;;1.00;99.90;;;;;;4992856;28;20223;-88
2022/01/15 08:19:52;;;;;;;20.60;15.90;;;0.80;99.90;;;;;;4998470;28;20228;-89
2022/01/15 08:22:19;;;;;;;28.15;18.17;;;1.20;99.90;;;;;;4993454;28;20193;-87
2022/01/15 08:24:47;;;;;;;25.67;16.40;;;1.00;99.90;;;;;;4991607;28;20576;-87
2022/01/15 08:27:20;;;;;;;30.80;18.27;;;0.90;99.90;;;;;;4994620;28;20232;-88
2022/01/15 08:29:47;;;;;;;26.85;17.08;;;1.00;99.90;;;;;;4986124;28;20189;-87
2022/01/15 08:32:43;;;;;;;26.90;16.73;;;1.00;99.90;;;;;;4983678;28;20211;-88
2022/01/15 08:35:16;;;;;;;28.20;18.83;;;1.10;99.90;;;;;;4982435;28;20864;-89
2022/01/15 08:37:45;;;;;;;29.45;17.65;;;1.20;99.90;;;;;;4982760;28;20243;-87
2022/01/15 08:40:20;;;;;;;25.63;17.50;;;0.80;99.90;;;;;;4982017;28;20223;-88
2022/01/15 08:42:49;;;;;;;28.17;18.23;;;1.30;99.90;;;;;;4984915;28;20192;-87
2022/01/15 08:45:50;;;;;;;28.63;19.23;;;1.10;99.90;;;;;;4994115;28;20232;-89
2022/01/15 08:49:02;;;;;;;26.48;18.27;;;1.30;99.90;;;;;;4994053;28;20244;-87
2022/01/15 08:51:35;;;;;;;28.45;17.77;;;1.30;99.90;;;;;;4990936;28;20239;-88
2022/01/15 08:54:10;;;;;;;33.30;19.10;;;1.30;99.90;;;;;;4991760;28;20256;-88
2022/01/15 08:56:40;;;;;;;31.08;18.98;;;1.40;99.90;;;;;;4991452;28;20208;-88
2022/01/15 08:59:08;;;;;;;28.35;20.38;;;1.40;99.90;;;;;;4987212;28;20208;-88
2022/01/15 09:01:36;;;;;;;26.35;19.25;;;1.40;99.90;;;;;;4986732;28;20264;-88
2022/01/15 09:04:05;;;;;;;25.38;18.95;;;1.00;99.90;;;;;;4984688;28;20312;-89
2022/01/15 09:06:32;;;;;;;31.05;19.52;;;1.50;99.90;;;;;;4985614;28;20228;-88
2022/01/15 09:09:00;;;;;;;29.48;21.15;;;1.60;99.90;;;;;;4983521;28;20228;-88
2022/01/15 09:11:27;;;;;;;26.10;18.88;;;1.70;99.90;;;;;;4984124;28;20677;-88
2022/01/15 09:13:54;;;;;;;25.35;18.42;;;1.80;99.90;;;;;;4986744;28;20274;-87
2022/01/15 09:16:24;;;;;;;32.70;21.52;;;1.80;99.90;;;;;;4983596;28;20189;-88
2022/01/15 09:18:51;;;;;;;28.88;21.70;;;2.20;99.90;;;;;;4983410;28;20253;-88
2022/01/15 09:21:28;;;;;;;30.25;18.95;;;2.00;99.90;;;;;;4984135;28;20276;-88
2022/01/15 09:23:55;;;;;;;28.30;20.25;;;2.10;99.90;;;;;;4989306;28;20230;-86
2022/01/15 09:26:25;;;;;;;27.25;19.90;;;2.20;99.90;;;;;;4997751;28;20189;-86
2022/01/15 09:31:38;;;;;;;25.77;18.67;;;1.80;99.90;;;;;;4992227;28;20212;-89
2022/01/15 09:34:08;;;;;;;29.27;20.27;;;2.50;99.90;;;;;;4987976;28;20229;-88
2022/01/15 09:36:36;;;;;;;29.73;20.75;;;2.20;99.90;;;;;;4984971;28;20224;-89
2022/01/15 09:39:05;;;;;;;32.90;20.17;;;2.20;99.90;;;;;;4986387;28;20200;-87
2022/01/15 09:41:33;;;;;;;26.70;19.08;;;2.60;99.90;;;;;;4985418;28;20213;-87
2022/01/15 09:44:01;;;;;;;25.08;17.75;;;2.60;99.90;;;;;;4985147;28;20224;-87
2022/01/15 09:46:29;;;;;;;29.35;21.52;;;2.60;99.90;;;;;;4985615;28;20217;-88
2022/01/15 09:49:02;;;;;;;32.67;21.23;;;2.60;99.90;;;;;;4984861;28;20287;-88
2022/01/15 09:51:36;;;;;;;31.13;19.83;;;2.40;99.90;;;;;;4984644;28;20205;-88
2022/01/15 09:54:03;;;;;;;29.20;20.63;;;2.50;99.90;;;;;;4989896;28;20228;-87
2022/01/15 09:56:33;;;;;;;26.50;19.67;;;2.50;99.90;;;;;;5000597;28;20196;-87
2022/01/15 09:59:02;;;;;;;26.92;20.90;;;2.50;99.90;;;;;;5000966;28;20192;-87
2022/01/15 10:01:30;;;;;;;34.13;21.85;;;2.30;99.90;;;;;;5000646;28;20253;-87
2022/01/15 10:03:59;;;;;;;28.48;20.30;;;2.80;99.90;;;;;;4994592;28;20204;-88
2022/01/15 10:06:26;;;;;;;28.10;20.80;;;2.90;99.90;;;;;;4989280;28;20208;-86
2022/01/15 10:09:01;;;;;;;31.48;21.67;;;2.30;99.90;;;;;;4998749;28;20225;-86
2022/01/15 10:11:45;;;;;;;27.67;20.52;;;2.80;99.90;;;;;;4999163;28;20224;-85
2022/01/15 10:14:26;;;;;;;27.50;20.90;;;2.90;99.90;;;;;;4998623;28;20216;-87
2022/01/15 10:16:56;;;;;;;27.92;20.52;;;2.90;99.90;;;;;;4999160;28;20202;-87
2022/01/15 10:19:29;;;;;;;27.98;20.77;;;3.20;99.90;;;;;;4992519;28;20200;-87
2022/01/15 10:22:15;;;;;;;30.40;22.83;;;3.10;99.90;;;;;;4990872;28;20268;-87
2022/01/15 10:24:43;;;;;;;28.52;20.67;;;3.30;99.90;;;;;;4989494;28;20229;-88
2022/01/15 10:27:26;;;;;;;32.25;22.90;;;3.00;99.90;;;;;;4988115;28;20317;-87
2022/01/15 10:30:07;;;;;;;31.80;23.70;;;3.30;99.90;;;;;;4988152;28;20213;-88
2022/01/15 10:32:36;;;;;;;30.38;22.80;;;3.30;99.90;;;;;;4988145;28;20193;-87
2022/01/15 10:35:13;;;;;;;31.65;21.15;;;3.40;99.90;;;;;;4987915;28;20253;-88
2022/01/15 10:37:49;;;;;;;23.35;18.58;;;3.30;99.90;;;;;;4987514;28;20244;-86
2022/01/15 10:40:17;;;;;;;30.77;19.85;;;3.30;99.90;;;;;;4987479;28;20198;-86
2022/01/15 10:42:53;;;;;;;29.75;22.30;;;3.60;99.90;;;;;;4991166;28;20205;-85
2022/01/15 10:45:20;;;;;;;29.88;22.10;;;3.20;99.90;;;;;;4992131;28;20246;-86
2022/01/15 10:47:49;;;;;;;27.00;21.55;;;3.50;99.90;;;;;;4989238;28;20237;-88
2022/01/15 10:50:22;;;;;;;30.92;23.27;;;3.50;99.90;;;;;;4988680;28;20622;-86
2022/01/15 10:52:49;;;;;;;28.80;21.98;;;3.10;99.90;;;;;;4990013;28;20251;-86
2022/01/15 10:55:17;;;;;;;30.85;20.40;;;3.50;99.90;;;;;;4995008;28;20234;-85
2022/01/15 10:57:48;;;;;;;35.35;23.15;;;3.20;99.90;;;;;;4996777;28;20240;-86
2022/01/15 11:00:20;;;;;;;33.20;22.35;;;3.90;99.90;;;;;;4989888;28;20229;-85
2022/01/15 11:02:52;;;;;;;29.30;22.20;;;3.80;99.90;;;;;;4991316;28;20578;-86
2022/01/15 11:05:32;;;;;;;28.65;22.48;;;3.60;99.90;;;;;;4989151;28;20233;-87
2022/01/15 11:08:12;;;;;;;32.30;22.23;;;3.70;99.90;;;;;;4992532;28;20174;-86
2022/01/15 11:10:52;;;;;;;31.52;21.25;;;3.50;99.90;;;;;;4996675;28;20190;-87
2022/01/15 11:13:25;;;;;;;29.65;20.23;;;3.80;99.90;;;;;;4990800;28;20233;-88
2022/01/15 11:15:56;;;;;;;27.70;20.77;;;3.90;99.90;;;;;;4991296;28;20228;-86
2022/01/15 11:18:25;;;;;;;30.95;22.52;;;3.70;99.90;;;;;;4989748;28;20701;-87
2022/01/15 11:20:55;;;;;;;30.77;21.83;;;3.50;99.90;;;;;;4999559;28;20206;-87
2022/01/15 11:23:32;;;;;;;27.90;22.58;;;3.90;99.90;;;;;;4998974;28;20178;-86
2022/01/15 11:26:03;;;;;;;28.20;21.10;;;4.10;99.90;;;;;;4995477;28;20261;-85
2022/01/15 11:28:34;;;;;;;33.92;21.70;;;4.00;99.90;;;;;;4997157;28;20244;-85
2022/01/15 11:31:04;;;;;;;34.47;21.50;;;4.00;99.90;;;;;;4995723;28;20210;-85
2022/01/15 11:33:34;;;;;;;33.10;20.52;;;3.80;99.90;;;;;;4992597;28;20240;-86
2022/01/15 11:36:04;;;;;;;36.75;23.10;;;3.70;99.90;;;;;;4990670;28;20334;-85
2022/01/15 11:38:41;;;;;;;33.05;20.77;;;4.00;99.90;;;;;;4990532;28;20300;-86
2022/01/15 11:41:37;;;;;;;29.58;21.05;;;4.50;99.90;;;;;;4989213;28;20204;-85
2022/01/15 11:44:05;;;;;;;30.17;22.02;;;4.40;99.90;;;;;;4989950;28;20310;-86
2022/01/15 11:46:34;;;;;;;31.90;22.38;;;4.70;99.90;;;;;;4990475;28;20246;-87
2022/01/15 11:49:44;;;;;;;28.05;21.55;;;4.80;99.90;;;;;;4994161;28;20226;-85
2022/01/15 11:52:38;;;;;;;33.70;20.20;;;4.70;99.90;;;;;;4993335;28;20213;-87
2022/01/15 11:55:29;;;;;;;29.80;23.20;;;4.60;99.90;;;;;;4975329;28;20284;-87
2022/01/15 11:57:59;;;;;;;30.88;22.90;;;4.30;99.90;;;;;;4989992;28;20205;-87
2022/01/15 12:00:43;;;;;;;25.80;18.98;;;4.60;99.90;;;;;;4988973;28;20218;-87
2022/01/15 12:03:15;;;;;;;29.98;21.85;;;4.90;99.90;;;;;;4987227;28;20277;-85
2022/01/15 12:05:45;;;;;;;33.97;22.50;;;4.80;99.90;;;;;;4990072;28;20313;-85
2022/01/15 12:08:32;;;;;;;29.98;21.45;;;4.30;99.90;;;;;;4989968;28;20283;-87
2022/01/15 12:11:02;;;;;;;26.80;20.30;;;5.00;99.90;;;;;;4993824;28;20263;-87
2022/01/15 12:13:35;;;;;;;26.77;19.42;;;4.40;99.90;;;;;;4993423;28;20195;-86
2022/01/15 12:19:07;;;;;;;28.77;20.95;;;4.80;99.90;;;;;;4987848;28;20198;-87
2022/01/15 12:22:03;;;;;;;27.40;16.77;;;4.70;99.90;;;;;;4993377;28;20220;-87
2022/01/15 12:24:45;;;;;;;27.63;19.77;;;5.10;99.90;;;;;;4985430;28;20241;-86
2022/01/15 12:27:15;;;;;;;26.52;20.20;;;5.00;99.90;;;;;;4988385;28;20518;-87
2022/01/15 12:29:44;;;;;;;28.77;21.10;;;5.10;99.90;;;;;;4986435;28;20276;-85
2022/01/15 12:32:12;;;;;;;29.33;21.42;;;5.00;99.90;;;;;;4986474;28;20256;-89
2022/01/15 12:34:42;;;;;;;28.30;21.30;;;4.80;99.90;;;;;;4987085;28;20316;-86
2022/01/15 12:37:15;;;;;;;31.45;20.77;;;4.90;99.90;;;;;;4988595;28;20276;-86
2022/01/15 12:39:44;;;;;;;27.90;22.02;;;4.90;99.90;;;;;;4991386;28;20207;-87
2022/01/15 12:42:14;;;;;;;28.65;21.73;;;4.90;99.90;;;;;;4987596;28;20210;-87
2022/01/15 12:44:46;;;;;;;29.95;21.63;;;4.90;99.90;;;;;;4988207;28;20239;-86
2022/01/15 12:57:33;;;;;;;31.92;21.65;;;5.10;99.90;;;;;;4966876;28;20561;-85
2022/01/15 13:03:31;;;;;;;30.25;21.50;;;5.20;99.90;;;;;;4978743;28;20595;-84
2022/01/15 13:09:41;;;;;;;29.80;21.55;;;5.10;99.90;;;;;;4999040;28;20257;-86
2022/01/15 16:40:44;;;;;;;;;;;;;;;;;;;;;
2022/01/15 17:14:51;;;;;;;40.60;27.75;;;3.90;99.90;;;;;;4960452;28;20226;-84
2022/01/15 17:18:01;;;;;;;43.28;28.30;;;4.00;99.90;;;;;;5042117;23;20245;-83
2022/01/15 18:23:04;;;;;;;45.28;26.80;;;3.50;99.90;;;;;;4744605;30;20233;-86
2022/01/15 18:26:09;;;;;;;41.67;26.95;;;3.50;99.90;;;;;;4727140;30;20312;-85
2022/01/15 18:29:23;;;;;;;38.03;27.58;;;3.60;99.90;;;;;;4893734;29;20595;-84
2022/01/15 18:35:27;;;;;;;44.20;28.58;;;3.40;99.90;;;;;;4911239;29;20203;-85
2022/01/15 18:38:00;;;;;;;39.90;27.52;;;3.30;99.90;;;;;;4926717;29;20234;-83
2022/01/15 19:12:56;;;;;;;;;;;;;;;;;;;;;
2022/01/15 19:23:36;;;;;;;;;;;;;;;;;;;;;
2022/01/15 19:36:51;;;;;;;42.50;27.90;;;2.90;99.90;;;;;;4962463;23;21393;-85
2022/01/15 19:39:21;;;;;;;43.65;27.88;;;3.00;99.90;;;;;;4985201;28;20232;-85
2022/01/15 19:41:51;;;;;;;43.42;29.50;;;2.90;99.90;;;;;;4986811;28;20208;-87
2022/01/15 19:44:36;;;;;;;44.75;26.83;;;2.80;99.90;;;;;;4986218;28;20228;-87
2022/01/15 19:47:15;;;;;;;40.65;26.88;;;2.90;99.90;;;;;;5054846;23;20237;-87
2022/01/15 19:49:48;;;;;;;45.45;29.10;;;2.90;99.90;;;;;;4995903;28;20201;-88
2022/01/15 19:52:23;;;;;;;46.40;30.90;;;2.80;99.90;;;;;;4998246;28;20200;-88
2022/01/15 19:54:50;;;;;;;41.00;27.70;;;2.80;99.90;;;;;;4999084;28;20193;-87
2022/01/15 19:57:21;;;;;;;49.83;29.77;;;2.50;99.90;;;;;;4992933;28;20650;-87
2022/01/15 19:59:48;;;;;;;43.55;28.60;;;2.40;99.90;;;;;;4986297;28;20201;-88
2022/01/15 20:02:15;;;;;;;43.22;28.33;;;2.80;99.90;;;;;;4986483;28;20343;-87
2022/01/15 20:04:42;;;;;;;43.38;28.05;;;2.60;99.90;;;;;;4984617;28;20244;-87
2022/01/15 20:07:13;;;;;;;47.45;28.70;;;2.90;99.90;;;;;;4984886;28;20240;-87
2022/01/15 20:09:42;;;;;;;44.65;28.73;;;2.80;99.90;;;;;;4988776;28;20420;-87
2022/01/15 20:12:17;;;;;;;47.15;32.22;;;2.80;99.90;;;;;;4989384;28;20351;-88
2022/01/15 20:14:44;;;;;;;40.03;28.55;;;2.40;99.90;;;;;;4983850;28;20212;-86
2022/01/15 20:17:12;;;;;;;42.97;29.48;;;3.10;99.90;;;;;;4987970;28;20284;-87
2022/01/15 20:19:50;;;;;;;47.33;29.90;;;3.00;99.90;;;;;;4995353;28;20269;-87
2022/01/15 20:22:20;;;;;;;44.80;30.08;;;2.80;99.90;;;;;;4989645;28;20215;-86
2022/01/15 20:24:55;;;;;;;43.08;27.83;;;2.90;99.90;;;;;;4988292;28;20212;-86